createdAt,value
2019-01-25T00:00:54.538Z,44.38
2019-01-25T00:03:43.444Z,43.77
2019-01-25T00:06:32.227Z,39.85
2019-01-25T00:09:21.041Z,48.80
2019-01-25T00:12:09.865Z,47.78
2019-01-25T00:14:58.674Z,42.62
2019-01-25T00:17:47.492Z,44.20
2019-01-25T00:20:36.299Z,44.63
2019-01-25T00:23:17.869Z,51.70
2019-01-25T00:26:06.740Z,42.00
2019-01-25T00:28:55.631Z,43.87
2019-01-25T00:31:44.438Z,37.90
2019-01-25T00:34:33.254Z,58.52
2019-01-25T00:37:22.050Z,42.03
2019-01-25T00:40:31.774Z,42.13
2019-01-25T00:43:20.578Z,35.27
2019-01-25T00:46:09.435Z,38.60
2019-01-25T00:48:58.183Z,41.08
2019-01-25T00:51:47.000Z,42.60
2019-01-25T00:54:35.801Z,42.93
2019-01-25T00:57:24.616Z,39.23
2019-01-25T01:00:32.730Z,43.02
2019-01-25T01:03:21.543Z,35.03
2019-01-25T01:06:10.339Z,45.23
2019-01-25T01:08:59.158Z,43.33
2019-01-25T01:11:47.952Z,36.95
2019-01-25T01:14:36.820Z,40.97
2019-01-25T01:17:17.979Z,50.35
2019-01-25T01:19:59.915Z,49.05
2019-01-25T01:29:11.467Z,41.90
2019-01-25T01:32:00.274Z,54.88
2019-01-25T01:34:49.071Z,39.83
2019-01-25T01:37:37.893Z,36.95
2019-01-25T01:40:26.688Z,41.60
2019-01-25T01:43:15.509Z,32.50
2019-01-25T01:49:18.993Z,52.10
2019-01-25T01:52:07.793Z,45.40
2019-01-25T01:54:56.607Z,40.10
2019-01-25T01:57:45.410Z,37.97
2019-01-25T02:00:34.224Z,41.60
2019-01-25T02:03:23.022Z,40.27
2019-01-25T02:06:11.850Z,49.58
2019-01-25T02:09:00.636Z,46.80
2019-01-25T02:11:49.456Z,51.10
2019-01-25T02:14:38.259Z,47.17
2019-01-25T02:17:27.140Z,52.25
2019-01-25T02:20:10.607Z,50.40
2019-01-25T02:22:59.554Z,41.47
2019-01-25T02:26:07.373Z,41.45
2019-01-25T02:28:56.185Z,43.50
2019-01-25T02:31:44.988Z,49.27
2019-01-25T02:34:33.809Z,68.93
2019-01-25T02:37:22.613Z,44.35
2019-01-25T02:40:38.640Z,47.88
2019-01-25T02:43:22.863Z,52.00
2019-01-25T02:46:11.711Z,46.45
2019-01-25T02:49:00.507Z,47.50
2019-01-25T02:51:49.321Z,52.27
2019-01-25T02:54:38.134Z,53.00
2019-01-25T02:57:26.957Z,61.13
2019-01-25T03:00:36.687Z,48.73
2019-01-25T03:03:25.489Z,38.87
2019-01-25T03:06:14.300Z,49.05
2019-01-25T03:12:12.497Z,55.85
2019-01-25T03:15:01.338Z,60.00
2019-01-25T03:18:09.354Z,60.20
2019-01-25T03:20:51.444Z,50.30
2019-01-25T03:23:40.266Z,57.03
2019-01-25T03:26:29.065Z,48.02
2019-01-25T03:29:17.874Z,43.50
2019-01-25T03:32:06.669Z,68.07
2019-01-25T03:34:55.483Z,50.85
2019-01-25T03:37:44.307Z,46.33
2019-01-25T03:40:33.092Z,54.88
2019-01-25T03:43:21.909Z,53.30
2019-01-25T03:46:10.707Z,52.78
2019-01-25T03:48:59.542Z,49.43
2019-01-25T03:51:48.339Z,60.23
2019-01-25T03:54:37.162Z,60.40
2019-01-25T03:57:25.979Z,59.38
2019-01-25T04:00:35.696Z,53.00
2019-01-25T04:03:24.493Z,49.70
2019-01-25T04:06:13.305Z,54.13
2019-01-25T04:09:02.109Z,92.53
2019-01-25T04:14:45.271Z,53.30
2019-01-25T04:17:53.360Z,61.45
2019-01-25T04:20:35.224Z,52.98
2019-01-25T04:23:24.040Z,61.13
2019-01-25T04:26:12.882Z,67.47
2019-01-25T04:29:01.731Z,65.60
2019-01-25T04:31:50.533Z,62.33
2019-01-25T04:34:39.348Z,60.90
2019-01-25T04:37:28.151Z,59.90
2019-01-25T04:40:37.880Z,57.43
2019-01-25T04:43:26.681Z,59.60
2019-01-25T04:46:15.492Z,63.60
2019-01-25T04:49:04.289Z,62.63
2019-01-25T04:51:53.100Z,68.78
2019-01-25T04:57:49.684Z,62.27
2019-01-25T05:00:38.483Z,54.88
2019-01-25T05:06:36.683Z,68.70
2019-01-25T05:09:25.478Z,52.87
2019-01-25T05:12:14.296Z,59.40
2019-01-25T05:15:03.159Z,67.92
2019-01-25T05:18:12.891Z,70.50
2019-01-25T05:20:54.180Z,73.02
2019-01-25T05:23:42.996Z,57.70
2019-01-25T05:26:31.795Z,77.70
2019-01-25T05:32:35.640Z,71.40
2019-01-25T05:35:24.432Z,57.03
2019-01-25T05:38:13.251Z,64.67
2019-01-25T05:41:02.112Z,64.90
2019-01-25T05:43:50.941Z,64.27
2019-01-25T05:46:39.979Z,61.23
2019-01-25T05:49:28.796Z,63.42
2019-01-25T05:55:46.277Z,73.97
2019-01-25T05:58:35.082Z,65.33
2019-01-25T06:01:23.906Z,73.95
2019-01-25T06:04:12.706Z,70.80
2019-01-25T06:07:01.803Z,67.10
2019-01-25T06:09:50.581Z,55.90
2019-01-25T06:12:39.399Z,54.05
2019-01-25T06:15:49.104Z,58.60
2019-01-25T06:18:37.919Z,60.30
2019-01-25T06:21:19.461Z,59.70
2019-01-25T06:24:08.274Z,69.87
2019-01-25T06:26:57.067Z,62.90
2019-01-25T06:29:45.879Z,55.10
2019-01-25T06:32:34.677Z,60.48
2019-01-25T06:35:23.494Z,61.65
2019-01-25T06:38:12.305Z,55.93
2019-01-25T06:41:01.105Z,67.25
2019-01-25T06:43:49.923Z,53.55
2019-01-25T06:46:38.719Z,64.67
2019-01-25T06:49:27.543Z,60.10
2019-01-25T06:52:16.336Z,52.00
2019-01-25T06:55:26.066Z,56.42
2019-01-25T06:58:33.887Z,60.92
2019-01-25T07:04:21.729Z,57.67
2019-01-25T07:13:35.402Z,52.87
2019-01-25T07:16:24.201Z,48.48
2019-01-25T07:19:13.008Z,49.93
2019-01-25T07:22:01.804Z,51.40
2019-01-25T07:24:56.923Z,45.80
2019-01-25T07:27:41.197Z,44.93
2019-01-25T07:30:30.078Z,54.27
2019-01-25T07:33:19.183Z,51.87
2019-01-25T07:36:08.070Z,51.00
2019-01-25T07:38:56.865Z,51.00
2019-01-25T07:41:45.703Z,58.00
2019-01-25T07:44:34.517Z,54.37
2019-01-25T07:47:23.358Z,53.10
2019-01-25T07:53:40.978Z,51.80
2019-01-25T07:56:29.789Z,45.78
2019-01-25T07:59:18.597Z,43.87
2019-01-25T08:02:07.393Z,43.35
2019-01-25T08:04:56.258Z,41.68
2019-01-25T08:07:45.026Z,45.27
2019-01-25T08:10:35.574Z,51.55
2019-01-25T08:13:24.612Z,47.80
2019-01-25T08:16:14.965Z,47.33
2019-01-25T08:22:24.838Z,41.68
2019-01-25T08:25:13.706Z,41.53
2019-01-25T08:28:02.543Z,51.27
2019-01-25T08:30:51.326Z,42.50
2019-01-25T08:33:41.864Z,49.50
2019-01-25T08:36:30.686Z,44.75
2019-01-25T08:39:19.506Z,36.87
2019-01-25T08:42:15.284Z,40.08
2019-01-25T08:44:59.740Z,50.17
2019-01-25T08:47:49.700Z,51.80
2019-01-25T08:50:38.501Z,47.35
2019-01-25T08:53:27.344Z,43.77
2019-01-25T08:56:16.128Z,43.05
2019-01-25T08:59:05.238Z,48.40
2019-01-25T09:01:54.088Z,43.58
2019-01-25T09:04:42.913Z,46.07
2019-01-25T09:07:31.717Z,39.03
2019-01-25T09:10:41.447Z,41.33
2019-01-25T09:13:30.259Z,45.87
2019-01-25T09:19:13.268Z,42.63
2019-01-25T09:22:02.082Z,49.53
2019-01-25T09:24:43.476Z,45.70
2019-01-25T09:27:32.382Z,46.85
2019-01-25T09:30:42.082Z,45.90
2019-01-25T09:33:30.897Z,49.93
2019-01-25T09:36:19.702Z,46.98
2019-01-25T09:42:23.189Z,43.60
2019-01-25T09:48:27.387Z,39.90
2019-01-25T09:51:16.271Z,44.63
2019-01-25T09:54:25.982Z,43.67
2019-01-25T10:01:08.528Z,49.67
2019-01-25T10:03:57.354Z,47.15
2019-01-25T10:06:46.158Z,45.78
2019-01-25T10:09:34.970Z,46.47
2019-01-25T10:12:23.776Z,44.73
2019-01-25T10:15:31.907Z,51.63
2019-01-25T10:18:24.660Z,51.83
2019-01-25T10:21:11.234Z,49.73
2019-01-25T10:24:00.038Z,51.10
2019-01-25T10:26:48.855Z,43.78
2019-01-25T10:29:37.653Z,48.80
2019-01-25T10:32:26.502Z,46.10
2019-01-25T10:35:15.373Z,42.73
2019-01-25T10:38:04.846Z,49.27
2019-01-25T10:40:54.729Z,47.90
2019-01-25T10:43:43.525Z,45.17
2019-01-25T10:46:32.345Z,38.60
2019-01-25T10:52:15.435Z,49.13
2019-01-25T10:55:25.151Z,43.20
2019-01-25T10:58:14.041Z,53.80
2019-01-25T11:01:02.841Z,47.45
2019-01-25T11:03:51.661Z,48.90
2019-01-25T11:06:40.455Z,50.45
2019-01-25T11:09:29.269Z,46.87
2019-01-25T11:12:10.782Z,43.28
2019-01-25T11:15:01.329Z,52.38
2019-01-25T11:18:09.273Z,50.47
2019-01-25T11:20:58.088Z,52.90
2019-01-25T11:23:46.890Z,49.07
2019-01-25T11:26:35.714Z,53.13
2019-01-25T11:29:24.501Z,39.93
2019-01-25T11:32:13.674Z,49.67
2019-01-25T11:35:02.477Z,44.58
2019-01-25T11:38:10.453Z,52.43
2019-01-25T11:40:59.254Z,46.58
2019-01-25T11:43:48.062Z,41.40
2019-01-25T11:46:36.990Z,41.75
2019-01-25T11:49:25.895Z,39.70
2019-01-25T11:52:14.704Z,43.23
2019-01-25T11:58:18.772Z,40.80
2019-01-25T12:01:07.836Z,44.70
2019-01-25T12:03:56.643Z,42.83
2019-01-25T12:06:45.434Z,48.13
2019-01-25T12:09:34.239Z,36.17
2019-01-25T12:12:16.311Z,41.30
2019-01-25T12:15:26.037Z,42.53
2019-01-25T12:18:14.826Z,52.63
2019-01-25T12:21:03.630Z,45.97
2019-01-25T12:23:52.502Z,46.75
2019-01-25T12:29:35.445Z,39.00
2019-01-25T12:32:24.231Z,40.40
2019-01-25T12:35:32.887Z,36.47
2019-01-25T12:38:21.692Z,39.23
2019-01-25T12:41:10.485Z,43.40
2019-01-25T12:43:59.287Z,42.20
2019-01-25T12:46:48.091Z,36.10
2019-01-25T12:49:36.901Z,45.70
2019-01-25T12:52:25.721Z,38.87
2019-01-25T12:55:14.503Z,40.67
2019-01-25T13:03:57.579Z,40.43
2019-01-25T13:06:46.373Z,36.63
2019-01-25T13:09:35.182Z,40.67
2019-01-25T13:12:16.944Z,42.77
2019-01-25T13:15:26.642Z,42.87
2019-01-25T13:18:15.454Z,43.60
2019-01-25T13:21:04.314Z,44.17
2019-01-25T13:23:53.218Z,44.83
2019-01-25T13:26:42.018Z,47.25
2019-01-25T13:29:30.823Z,45.07
2019-01-25T13:32:19.773Z,45.60
2019-01-25T13:35:10.000Z,43.40
2019-01-25T13:37:59.241Z,40.13
2019-01-25T13:40:48.042Z,46.33
2019-01-25T13:43:39.149Z,44.97
2019-01-25T13:46:27.362Z,62.30
2019-01-25T13:49:16.147Z,47.23
2019-01-25T13:52:05.029Z,59.83
2019-01-25T13:54:53.818Z,50.40
2019-01-25T13:58:01.718Z,43.27
2019-01-25T14:00:50.501Z,44.60
2019-01-25T14:03:32.095Z,46.00
2019-01-25T14:06:20.881Z,51.03
2019-01-25T14:09:09.873Z,43.35
2019-01-25T14:11:58.663Z,57.20
2019-01-25T14:14:48.991Z,65.10
2019-01-25T14:17:37.997Z,54.50
2019-01-25T14:20:46.125Z,49.57
2019-01-25T14:23:34.918Z,51.27
2019-01-25T14:26:23.727Z,51.83
2019-01-25T14:29:12.517Z,44.10
2019-01-25T14:32:01.343Z,50.53
2019-01-25T14:34:50.130Z,44.90
2019-01-25T14:37:38.944Z,43.53
2019-01-25T14:40:27.826Z,48.97
2019-01-25T14:43:16.619Z,43.50
2019-01-25T14:46:05.599Z,54.67
2019-01-25T14:48:54.381Z,48.37
2019-01-25T14:51:43.191Z,55.40
2019-01-25T14:54:31.980Z,62.47
2019-01-25T14:57:21.663Z,51.35
2019-01-25T15:03:19.840Z,53.43
2019-01-25T15:06:27.659Z,44.83
2019-01-25T15:09:16.832Z,53.83
2019-01-25T15:12:25.363Z,45.40
2019-01-25T15:15:35.078Z,52.97
2019-01-25T15:18:23.889Z,58.57
2019-01-25T15:21:12.669Z,62.43
2019-01-25T15:24:01.501Z,62.33
2019-01-25T15:26:50.303Z,61.67
2019-01-25T15:29:39.099Z,65.13
2019-01-25T15:32:27.911Z,54.60
2019-01-25T15:35:37.632Z,62.60
2019-01-25T15:38:26.469Z,66.63
2019-01-25T15:41:15.447Z,57.53
2019-01-25T15:47:32.746Z,84.50
2019-01-25T15:50:40.911Z,64.77
2019-01-25T15:53:29.753Z,76.30
2019-01-25T15:56:18.684Z,73.13
2019-01-25T15:59:00.871Z,65.37
2019-01-25T16:01:49.729Z,64.47
2019-01-25T16:04:38.609Z,66.23
2019-01-25T16:07:27.452Z,61.57
2019-01-25T16:10:37.225Z,68.30
2019-01-25T16:13:26.045Z,70.57
2019-01-25T16:16:14.968Z,78.10
2019-01-25T16:19:03.816Z,91.27
2019-01-25T16:24:46.804Z,105.67
2019-01-25T16:27:35.769Z,98.80
2019-01-25T16:30:43.946Z,104.00
2019-01-25T16:33:32.827Z,122.73
2019-01-25T16:36:21.655Z,106.30
2019-01-25T16:39:10.533Z,93.80
2019-01-25T16:41:59.355Z,88.53
2019-01-25T16:44:48.235Z,91.50
2019-01-25T16:50:44.787Z,104.90
2019-01-25T16:53:33.626Z,96.57
2019-01-25T16:56:15.418Z,103.30
2019-01-25T17:02:32.642Z,87.23
2019-01-25T17:05:21.502Z,79.13
2019-01-25T17:08:10.386Z,78.87
2019-01-25T17:10:59.178Z,83.20
2019-01-25T17:13:48.062Z,89.80
2019-01-25T17:19:44.610Z,75.90
2019-01-25T17:22:33.409Z,94.20
2019-01-25T17:25:22.497Z,81.67
2019-01-25T17:28:11.280Z,94.93
2019-01-25T17:31:00.082Z,76.57
2019-01-25T17:33:48.877Z,73.77
2019-01-25T17:36:37.694Z,80.00
2019-01-25T17:39:27.505Z,76.57
2019-01-25T17:42:17.014Z,83.87
2019-01-25T17:45:26.728Z,84.10
2019-01-25T17:48:15.527Z,73.43
2019-01-25T17:51:04.310Z,88.10
2019-01-25T17:53:53.255Z,88.73
2019-01-25T17:56:34.686Z,71.63
2019-01-25T17:59:23.501Z,81.27
2019-01-25T18:02:12.403Z,70.50
2019-01-25T18:05:01.183Z,73.87
2019-01-25T18:07:50.001Z,71.43
2019-01-25T18:10:38.802Z,74.63
2019-01-25T18:13:28.689Z,76.87
2019-01-25T18:16:37.149Z,89.23
2019-01-25T18:19:26.056Z,84.13
2019-01-25T18:22:14.917Z,92.30
2019-01-25T18:28:39.488Z,78.90
2019-01-25T18:31:49.213Z,72.50
2019-01-25T18:34:38.065Z,75.57
2019-01-25T18:37:26.883Z,80.03
2019-01-25T18:40:15.688Z,86.97
2019-01-25T18:43:23.966Z,76.22
2019-01-25T18:46:12.778Z,82.27
2019-01-25T18:49:01.562Z,84.67
2019-01-25T18:51:50.370Z,74.03
2019-01-25T18:54:39.176Z,82.87
2019-01-25T18:57:21.331Z,80.23
2019-01-25T19:00:31.049Z,63.57
2019-01-25T19:03:19.849Z,67.50
2019-01-25T19:06:08.683Z,64.53
2019-01-25T19:08:57.541Z,66.23
2019-01-25T19:11:46.360Z,60.90
2019-01-25T19:14:35.150Z,65.70
2019-01-25T19:17:24.013Z,58.67
2019-01-25T19:23:41.541Z,60.63
2019-01-25T19:26:30.352Z,79.73
2019-01-25T19:29:19.153Z,56.27
2019-01-25T19:32:27.370Z,52.23
2019-01-25T19:35:16.277Z,54.67
2019-01-25T19:41:34.147Z,54.83
2019-01-25T19:44:42.150Z,70.62
2019-01-25T19:50:46.135Z,63.57
2019-01-25T19:56:23.255Z,56.50
2019-01-25T19:59:32.617Z,46.87
2019-01-25T20:02:56.073Z,37.07
2019-01-25T20:08:43.387Z,44.23
2019-01-25T20:12:06.477Z,42.20
2019-01-25T20:15:03.553Z,47.80
2019-01-25T20:18:28.381Z,38.47
2019-01-25T20:24:52.192Z,52.73
2019-01-25T20:31:33.456Z,44.07
2019-01-25T20:38:10.962Z,38.63
2019-01-25T20:44:52.491Z,49.93
2019-01-25T20:47:33.626Z,39.80
2019-01-25T20:50:56.738Z,46.97
2019-01-25T20:56:40.796Z,37.97
2019-01-25T21:00:08.220Z,35.70
2019-01-25T21:13:00.275Z,39.60
2019-01-25T21:26:10.051Z,33.77
2019-01-25T21:29:18.148Z,34.07
2019-01-25T21:42:02.624Z,42.03
2019-01-25T21:45:14.467Z,32.40
2019-01-25T21:48:23.585Z,42.30
2019-01-25T21:54:30.003Z,38.73
2019-01-25T21:57:12.427Z,38.10
2019-01-25T22:00:01.374Z,28.60
2019-01-25T22:02:50.400Z,36.83
2019-01-25T22:08:33.423Z,34.20
2019-01-25T22:11:22.322Z,21.93
2019-01-25T22:14:11.121Z,27.50
2019-01-25T22:17:19.292Z,27.80
2019-01-25T22:20:29.004Z,23.00
2019-01-25T22:26:12.403Z,35.27
2019-01-25T22:29:01.210Z,24.80
2019-01-25T22:31:50.013Z,25.80
2019-01-25T22:34:38.832Z,23.80
2019-01-25T22:37:27.627Z,24.20
2019-01-25T22:40:37.345Z,24.93
2019-01-25T22:43:26.142Z,23.07
2019-01-25T22:46:14.957Z,26.73
2019-01-25T22:49:03.743Z,26.83
2019-01-25T22:51:52.555Z,26.73
2019-01-25T22:54:41.367Z,19.63
2019-01-25T22:57:22.588Z,20.60
2019-01-25T23:00:51.335Z,20.30
2019-01-25T23:04:01.052Z,25.57
2019-01-25T23:06:49.848Z,20.73
2019-01-25T23:09:38.667Z,22.15
2019-01-25T23:12:27.465Z,24.00
2019-01-25T23:15:16.548Z,23.40
2019-01-25T23:18:05.505Z,26.97
2019-01-25T23:20:54.415Z,25.87
2019-01-25T23:23:43.221Z,27.50
2019-01-25T23:26:32.038Z,25.23
2019-01-25T23:29:20.843Z,25.17
2019-01-25T23:32:09.649Z,25.30
2019-01-25T23:34:58.451Z,21.53
2019-01-25T23:37:47.260Z,24.20
2019-01-25T23:40:36.049Z,21.73
2019-01-25T23:43:24.857Z,20.08
2019-01-25T23:46:14.000Z,26.20
2019-01-25T23:49:04.260Z,28.83
2019-01-25T23:51:53.047Z,21.67
2019-01-25T23:54:41.857Z,19.77
2019-01-25T23:57:23.649Z,17.67
